»·PEaware :: SWA189 KTUS-KELP

SWA189 :: KTUS-KELP

FLIGHT INFORMATION

Flight Status: Arrived
Operator:
Southwest Airlines
More flights by this operator :: More flights under this callsign
Pilot: Patricio R. (14780)
Aircraft: BOEING 737-200
(B732)
More flights by this aircraft type
Origin: KTUS Tucson Intl
United States
Destination: KELP El Paso Intl
United States
More flights between these airports :: More routes between these airports
Route: +TUS J2 ELP
File this flight plan on PilotEdge
Remarks: PBN / A1B2 DOF / 180114 REG / N275SB EET / MMTY0039 OPR / SWA RMK / TCAS SIMBRIEF
Altitude:
(Current/Filed)
25,000ft
Speed:
(Current/Filed)
423kts
Departed: 13-Jan-18 08:01 PM
Arrived: 13-Jan-18 08:46 PM
Distance/Time
Traveled:
233nm/0:45
Distance/Time
To Go:
Arrived

Flight Plot

Page will automatically refresh every two minutes.

Flight plan parsing failed; only flown route is shown


Map Options




Map Legend


Flown Route
Filed Route
Departure Airport
Arrival Airport
Navaid (VOR, NDB)
Fix

Horizontal Profiles

Position Reports

Time Latitude Longitude Heading Altitude Ground
Speed
13-Jan-18 19:19 32.119426 -110.937986 96 2598ft 0kts
13-Jan-18 19:20 32.119426 -110.937986 96 2598ft 0kts
13-Jan-18 19:21 32.119426 -110.937986 96 2598ft 0kts
13-Jan-18 19:22 32.119426 -110.937986 96 2598ft 0kts
13-Jan-18 19:23 32.119426 -110.937986 96 2598ft 0kts
13-Jan-18 19:24 32.119426 -110.937986 96 2598ft 0kts
13-Jan-18 19:25 32.119426 -110.937986 96 2598ft 0kts
13-Jan-18 19:26 32.119426 -110.937986 96 2598ft 0kts
13-Jan-18 19:27 32.119426 -110.937986 96 2598ft 0kts
13-Jan-18 19:28 32.119426 -110.937986 96 2598ft 0kts
13-Jan-18 19:29 32.119426 -110.937986 96 2598ft 0kts
13-Jan-18 19:30 32.119426 -110.937986 96 2598ft 0kts
13-Jan-18 19:31 32.119426 -110.937987 96 2598ft 0kts
13-Jan-18 19:32 32.119426 -110.937987 96 2599ft 0kts
13-Jan-18 19:33 32.119426 -110.937987 96 2599ft 0kts
13-Jan-18 19:34 32.119426 -110.937987 96 2599ft 0kts
13-Jan-18 19:35 32.119426 -110.937987 96 2599ft 0kts
13-Jan-18 19:39 32.119426 -110.937986 96 2599ft 0kts
13-Jan-18 19:40 32.119426 -110.937986 96 2598ft 0kts
13-Jan-18 19:41 32.119426 -110.937986 96 2598ft 0kts
13-Jan-18 19:42 32.119426 -110.937986 96 2598ft 0kts
13-Jan-18 19:43 32.119426 -110.937986 96 2598ft 0kts
13-Jan-18 19:44 32.119426 -110.937986 96 2598ft 0kts
13-Jan-18 19:45 32.119426 -110.937986 96 2598ft 0kts
13-Jan-18 19:46 32.119426 -110.937986 96 2598ft 0kts
13-Jan-18 19:47 32.119426 -110.937986 96 2598ft 0kts
13-Jan-18 19:48 32.119426 -110.937986 96 2598ft 0kts
13-Jan-18 19:49 32.119426 -110.937986 96 2598ft 0kts
13-Jan-18 19:50 32.119426 -110.937986 96 2598ft 0kts
13-Jan-18 19:51 32.119426 -110.937986 96 2598ft 0kts
13-Jan-18 19:52 32.119426 -110.937986 96 2598ft 0kts
13-Jan-18 19:53 32.119426 -110.937986 96 2598ft 0kts
13-Jan-18 19:54 32.119426 -110.937986 96 2598ft 0kts
13-Jan-18 19:55 32.119426 -110.937986 96 2598ft 0kts
13-Jan-18 19:56 32.119426 -110.937986 96 2598ft 0kts
13-Jan-18 19:57 32.119426 -110.937986 96 2598ft 0kts
13-Jan-18 19:58 32.119426 -110.937986 96 2598ft 0kts
13-Jan-18 19:59 32.119487 -110.938140 98 2598ft 2kts
13-Jan-18 20:00 32.119827 -110.938501 218 2599ft 1kts
13-Jan-18 20:01 32.119862 -110.938463 225 2598ft 0kts
13-Jan-18 20:02 32.119844 -110.938485 225 2598ft 1kts
13-Jan-18 20:03 32.118930 -110.940320 315 2598ft 12kts
13-Jan-18 20:04 32.121504 -110.943261 315 2598ft 11kts
13-Jan-18 20:05 32.123562 -110.945683 312 2598ft 9kts
13-Jan-18 20:06 32.122693 -110.947124 135 2598ft 5kts
13-Jan-18 20:07 32.108519 -110.930573 136 2693ft 174kts
13-Jan-18 20:08 32.072922 -110.885582 129 5033ft 206kts
13-Jan-18 20:09 32.071384 -110.817732 70 6957ft 237kts
13-Jan-18 20:10 32.088899 -110.737125 93 8572ft 285kts
13-Jan-18 20:11 32.083503 -110.640643 93 10834ft 300kts
13-Jan-18 20:12 32.078589 -110.540947 92 12968ft 310kts
13-Jan-18 20:13 32.073665 -110.437934 92 15034ft 321kts
13-Jan-18 20:14 32.068517 -110.331699 93 16955ft 331kts
13-Jan-18 20:15 32.062804 -110.222042 92 18691ft 340kts
13-Jan-18 20:16 32.057165 -110.109449 92 20260ft 349kts
13-Jan-18 20:17 32.051181 -109.990454 92 21103ft 376kts
13-Jan-18 20:18 32.042956 -109.865480 106 22223ft 389kts
13-Jan-18 20:19 32.024936 -109.741000 89 23327ft 394kts
13-Jan-18 20:20 32.020771 -109.611307 91 24359ft 401kts
13-Jan-18 20:21 32.014807 -109.479201 91 25281ft 408kts
13-Jan-18 20:22 32.008160 -109.342240 92 25311ft 435kts
13-Jan-18 20:23 32.000035 -109.197191 92 25307ft 456kts
13-Jan-18 20:24 31.992163 -109.046281 92 25302ft 462kts
13-Jan-18 20:25 31.984251 -108.895464 92 25318ft 464kts
13-Jan-18 20:26 31.976091 -108.743408 92 25362ft 464kts
13-Jan-18 20:27 31.969194 -108.617508 92 25377ft 464kts
13-Jan-18 20:28 31.959302 -108.440785 92 25385ft 464kts
13-Jan-18 20:29 31.952110 -108.318389 93 25362ft 464kts
13-Jan-18 20:30 31.942697 -108.167021 92 25348ft 464kts
13-Jan-18 20:31 31.932152 -107.990733 92 25349ft 464kts
13-Jan-18 20:32 31.924499 -107.864713 92 25349ft 464kts
13-Jan-18 20:33 31.913606 -107.688965 92 24993ft 457kts
13-Jan-18 20:34 31.905779 -107.565027 92 23984ft 451kts
13-Jan-18 20:35 31.896125 -107.423461 93 22790ft 434kts
13-Jan-18 20:36 31.886318 -107.285207 94 20894ft 422kts
13-Jan-18 20:37 31.877264 -107.153066 93 19986ft 385kts
13-Jan-18 20:38 31.868928 -107.028903 93 18042ft 377kts
13-Jan-18 20:39 31.860668 -106.907851 93 17007ft 368kts
13-Jan-18 20:40 31.852471 -106.789870 93 16986ft 356kts
13-Jan-18 20:41 31.844542 -106.677787 93 16373ft 336kts
13-Jan-18 20:42 31.836799 -106.569185 93 14825ft 329kts
13-Jan-18 20:43 31.843759 -106.464389 77 13340ft 320kts
13-Jan-18 20:44 31.865207 -106.364835 67 11898ft 311kts
13-Jan-18 20:45 31.893985 -106.271221 68 10198ft 299kts
13-Jan-18 20:46 31.898732 -106.187124 135 9408ft 261kts
13-Jan-18 20:47 31.831867 -106.173203 187 8091ft 250kts
13-Jan-18 20:48 31.784556 -106.210264 273 7198ft 200kts
13-Jan-18 20:49 31.793361 -106.263760 287 6146ft 145kts
13-Jan-18 20:50 31.798095 -106.308345 277 4857ft 134kts
13-Jan-18 20:51 31.800246 -106.353298 275 4109ft 137kts
13-Jan-18 20:52 31.801613 -106.380396 265 3944ft 17kts
13-Jan-18 20:53 31.800808 -106.381240 186 3944ft 5kts

Navigation Log

Ident Type
Flight plan parsing failed, navigation log unavailable